Time;durP1;ratioP1;P1;durP2;ratioP2;P2;SDS_P1;SDS_P2;PMS_P1;PMS_P2;Temp;Humidity;BMP_temperature;BMP_pressure;BME280_temperature;BME280_humidity;BME280_pressure;Samples;Min_cycle;Max_cycle;Signal;HPM_P1;HPM_P2
2022/11/08 00:03:17;;;;;;;11.10;5.60;;;;;;;3.08;73.58;100123.83;24541;1339;3054334;-71
2022/11/08 00:14:11;;;;;;;11.30;5.70;;;;;;;2.99;73.31;100120.72;24540;1333;3068463;-71
2022/11/08 00:16:40;;;;;;;12.00;5.40;;;;;;;2.94;73.53;100123.23;24607;1330;3026508;-68
2022/11/08 00:19:08;;;;;;;12.10;5.80;;;;;;;2.90;73.83;100121.05;24606;1324;3049795;-68
2022/11/08 00:21:38;;;;;;;8.60;4.30;;;;;;;2.92;73.85;100122.23;24568;1331;3028333;-67
2022/11/08 00:24:07;;;;;;;7.40;3.60;;;;;;;3.47;72.78;100119.92;24592;1329;3025834;-70
2022/11/08 00:26:36;;;;;;;8.20;4.20;;;;;;;4.02;70.73;100116.46;24652;1319;3050127;-70
2022/11/08 00:29:06;;;;;;;10.10;5.20;;;;;;;4.16;70.15;100115.97;24560;1331;3027000;-71
2022/11/08 00:31:35;;;;;;;10.70;4.50;;;;;;;4.13;70.63;100119.34;24583;1323;3026796;-70
2022/11/08 00:34:03;;;;;;;9.90;4.80;;;;;;;3.91;70.48;100121.40;24592;1340;3049819;-68
2022/11/08 00:36:33;;;;;;;10.50;4.70;;;;;;;3.70;70.76;100124.14;24588;1329;3028576;-69
2022/11/08 00:39:01;;;;;;;11.70;5.20;;;;;;;3.39;71.23;100125.27;24547;1340;3051602;-69
2022/11/08 00:41:32;;;;;;;11.40;5.30;;;;;;;3.26;71.92;100126.94;24547;1340;3028873;-69
2022/11/08 00:44:00;;;;;;;10.40;5.20;;;;;;;3.14;72.12;100127.36;24563;1323;3027364;-72
2022/11/08 00:46:30;;;;;;;10.50;5.40;;;;;;;3.01;72.31;100126.02;24586;1330;3053578;-71
2022/11/08 00:48:58;;;;;;;11.00;5.10;;;;;;;2.94;72.52;100123.23;24601;1331;3026220;-71
2022/11/08 00:51:27;;;;;;;14.20;5.60;;;;;;;2.77;72.90;100123.38;24511;1330;3052388;-70
2022/11/08 00:53:56;;;;;;;13.60;5.50;;;;;;;2.70;73.30;100121.26;24653;1323;3027335;-70
2022/11/08 00:56:25;;;;;;;9.60;5.80;;;;;;;2.56;73.79;100119.92;24596;1330;3053505;-68
2022/11/08 00:58:54;;;;;;;14.20;6.40;;;;;;;2.49;74.30;100116.07;24578;1322;3027557;-71
2022/11/08 01:01:23;;;;;;;10.40;5.60;;;;;;;2.42;74.42;100113.77;24559;1322;3051838;-69
2022/11/08 01:03:52;;;;;;;12.90;5.80;;;;;;;2.39;74.79;100114.52;24623;1323;3026229;-68
2022/11/08 01:06:22;;;;;;;10.40;5.70;;;;;;;2.37;74.73;100116.60;24563;1326;3056407;-67
2022/11/08 01:08:51;;;;;;;15.10;6.40;;;;;;;2.30;74.86;100113.09;24564;1330;3027679;-69
2022/11/08 01:11:22;;;;;;;11.10;5.60;;;;;;;2.23;75.40;100114.07;24577;1329;3027867;-65
2022/11/08 01:13:51;;;;;;;10.90;5.50;;;;;;;2.17;75.67;100118.66;24594;1323;3027066;-66
2022/11/08 01:16:22;;;;;;;12.90;5.80;;;;;;;2.09;76.31;100116.55;24491;1330;3027977;-65
2022/11/08 01:18:52;;;;;;;12.30;5.80;;;;;;;2.11;76.19;100118.59;24550;1331;3027365;-68
2022/11/08 01:21:21;;;;;;;14.20;6.70;;;;;;;2.14;76.17;100118.70;24538;1330;3027755;-66
2022/11/08 01:23:51;;;;;;;10.00;4.50;;;;;;;2.11;76.53;100115.64;24543;1323;3029280;-64
2022/11/08 01:26:25;;;;;;;9.00;4.50;;;;;;;2.63;75.53;100116.52;24599;1331;3049936;-66
2022/11/08 01:28:54;;;;;;;8.90;4.90;;;;;;;3.43;72.58;100116.89;24566;1333;3069143;-66
2022/11/08 01:31:29;;;;;;;8.40;4.40;;;;;;;3.74;71.48;100113.98;24557;1330;3026985;-69
2022/11/08 01:33:58;;;;;;;13.80;6.80;;;;;;;3.61;70.92;100119.11;24616;1333;3028044;-66
2022/11/08 01:36:27;;;;;;;12.00;5.90;;;;;;;3.30;71.38;100121.32;24547;1332;3026673;-67
2022/11/08 01:38:56;;;;;;;11.30;6.00;;;;;;;3.06;72.40;100124.02;24582;1339;3052014;-66
2022/11/08 01:41:26;;;;;;;10.90;5.60;;;;;;;2.82;73.52;100125.18;24580;1329;3026948;-67
2022/11/08 01:43:58;;;;;;;9.30;4.90;;;;;;;2.63;74.01;100127.08;24567;1324;3027911;-67
2022/11/08 01:46:38;;;;;;;9.70;4.90;;;;;;;2.41;75.12;100123.81;24548;1324;3029260;-67
2022/11/08 01:49:33;;;;;;;10.10;4.70;;;;;;;2.27;75.89;100129.05;24524;1323;3051573;-68
2022/11/08 01:52:06;;;;;;;10.30;5.50;;;;;;;2.30;76.09;100129.17;24585;1330;3052420;-66
2022/11/08 01:54:44;;;;;;;10.30;5.30;;;;;;;2.25;76.10;100124.94;24601;1331;3028686;-67
2022/11/08 01:57:23;;;;;;;10.10;5.40;;;;;;;2.23;76.33;100125.83;24524;1324;3067979;-69
2022/11/08 01:59:53;;;;;;;9.50;5.90;;;;;;;2.14;76.63;100125.63;24610;1331;3050322;-69
2022/11/08 02:02:22;;;;;;;8.60;5.50;;;;;;;2.11;76.77;100124.63;24551;1333;3026983;-68
2022/11/08 02:04:50;;;;;;;15.20;6.20;;;;;;;2.08;76.88;100128.83;24591;1330;3027131;-67
2022/11/08 02:07:19;;;;;;;14.80;7.20;;;;;;;2.07;76.84;100129.36;24552;1323;3048660;-68
2022/11/08 20:26:43;;;;;;;104.20;41.20;;;;;;;2.54;75.77;100146.42;30847;1339;3013070;-71
2022/11/08 20:29:14;;;;;;;98.30;38.80;;;;;;;2.45;75.91;100148.13;24445;1336;3026534;-70
2022/11/08 20:31:43;;;;;;;105.90;39.80;;;;;;;2.45;76.17;100146.94;24450;1342;3027672;-73
2022/11/08 20:34:13;;;;;;;86.10;31.80;;;;;;;2.46;76.18;100145.34;24433;1337;3025180;-74
2022/11/08 20:36:43;;;;;;;73.10;29.90;;;;;;;2.96;74.84;100142.40;24450;1340;3027144;-74
2022/11/08 20:39:13;;;;;;;82.30;33.50;;;;;;;3.59;72.71;100142.20;23843;1339;4330938;-72
2022/11/08 20:41:43;;;;;;;90.20;36.30;;;;;;;3.80;71.57;100146.78;24579;1343;3026218;-73
2022/11/08 20:44:13;;;;;;;96.30;37.90;;;;;;;3.75;71.28;100147.94;24542;1336;3027707;-75
2022/11/08 20:46:43;;;;;;;88.60;37.70;;;;;;;3.62;71.59;100152.02;24527;1340;3050534;-73
2022/11/08 20:49:13;;;;;;;106.00;38.80;;;;;;;3.45;71.85;100153.23;24577;1339;3026272;-72
2022/11/08 20:51:43;;;;;;;89.90;36.80;;;;;;;3.34;72.61;100156.73;24450;1343;3026598;-73
2022/11/08 20:54:15;;;;;;;95.10;37.50;;;;;;;3.19;73.05;100162.59;24508;1337;3026382;-74
2022/11/08 20:56:45;;;;;;;94.00;37.70;;;;;;;3.07;73.77;100163.84;24483;1331;3029992;-74
2022/11/08 20:59:14;;;;;;;95.30;39.20;;;;;;;3.06;74.07;100163.69;24568;1333;3028432;-73
2022/11/08 21:01:44;;;;;;;95.50;37.40;;;;;;;2.97;74.31;100170.77;24535;1334;3051691;-73
2022/11/08 21:04:14;;;;;;;85.70;37.10;;;;;;;2.94;74.65;100172.04;24496;1343;3027576;-72
2022/11/08 21:06:43;;;;;;;88.80;37.40;;;;;;;2.86;74.94;100178.41;24547;1327;3029556;-73
2022/11/08 21:09:12;;;;;;;92.90;37.20;;;;;;;2.88;75.08;100180.27;24586;1334;3024987;-73
2022/11/08 21:11:41;;;;;;;81.30;34.50;;;;;;;2.91;75.01;100175.73;24520;1334;3050937;-72
2022/11/08 21:14:12;;;;;;;96.50;38.10;;;;;;;2.94;75.13;100175.67;24463;1334;3028367;-74
2022/11/08 21:16:41;;;;;;;102.00;40.00;;;;;;;2.86;75.38;100170.09;24542;1336;3028010;-71
2022/11/08 21:19:17;;;;;;;96.00;39.60;;;;;;;2.87;75.60;100175.45;24509;1329;3069609;-75
2022/11/08 21:22:13;;;;;;;87.10;37.10;;;;;;;2.87;75.75;100179.94;24520;1340;3049628;-74
2022/11/08 21:24:42;;;;;;;100.10;39.20;;;;;;;2.86;75.97;100182.55;24531;1343;3058313;-71
2022/11/08 21:27:11;;;;;;;104.90;40.30;;;;;;;2.89;76.01;100184.08;24579;1333;3027025;-72
2022/11/08 21:29:41;;;;;;;92.60;32.40;;;;;;;2.93;75.92;100181.58;24621;1325;3029097;-70
2022/11/08 21:32:10;;;;;;;73.90;27.00;;;;;;;3.47;74.60;100183.33;24588;1331;3027783;-74
2022/11/08 21:34:44;;;;;;;90.40;31.00;;;;;;;4.06;72.75;100178.95;24592;1325;3051329;-70
2022/11/08 21:37:13;;;;;;;;;;;;;;;4.23;72.06;100181.17;24565;1334;3054364;-71
2022/11/08 21:39:43;;;;;;;80.80;31.80;;;;;;;4.12;72.13;100189.58;24559;1333;3029262;-71
2022/11/08 21:42:12;;;;;;;98.30;38.40;;;;;;;4.04;72.54;100196.69;24532;1328;3030356;-74
2022/11/08 21:44:41;;;;;;;92.40;36.40;;;;;;;3.97;73.15;100200.67;24510;1338;3026997;-73
2022/11/08 21:47:10;;;;;;;98.30;37.60;;;;;;;3.93;73.25;100195.36;24583;1324;3026233;-73
2022/11/08 21:49:40;;;;;;;98.10;37.40;;;;;;;3.82;73.22;100193.88;24551;1326;3053459;-74
2022/11/08 21:52:09;;;;;;;103.80;40.80;;;;;;;3.65;73.95;100188.51;24526;1319;3028360;-71
2022/11/08 21:54:40;;;;;;;92.90;38.90;;;;;;;3.57;74.43;100184.52;24488;1332;3051886;-73
2022/11/08 21:57:09;;;;;;;94.80;38.40;;;;;;;3.49;74.83;100178.96;24584;1333;3026702;-75
2022/11/08 22:00:08;;;;;;;100.80;42.10;;;;;;;3.57;74.79;100180.52;30866;1339;3013287;-70
2022/11/08 22:02:38;;;;;;;92.90;37.80;;;;;;;3.51;74.90;100183.93;24390;1342;3026837;-72
2022/11/08 22:05:08;;;;;;;85.50;36.90;;;;;;;3.47;75.19;100181.27;24415;1349;3026748;-71
2022/11/08 22:07:37;;;;;;;91.00;37.90;;;;;;;3.48;75.36;100177.25;24444;1338;3026011;-74
2022/11/08 22:10:07;;;;;;;91.50;37.90;;;;;;;3.41;75.39;100177.03;24432;1339;3069199;-72
2022/11/08 22:12:37;;;;;;;111.90;43.60;;;;;;;3.36;75.45;100178.16;23743;1338;4311183;-69
2022/11/08 22:15:07;;;;;;;109.10;44.20;;;;;;;3.28;75.53;100182.14;24535;1329;3026676;-72
2022/11/08 22:17:36;;;;;;;119.20;43.30;;;;;;;3.23;75.62;100185.17;24486;1336;3026352;-73
2022/11/08 22:20:06;;;;;;;87.40;32.30;;;;;;;3.19;76.05;100189.59;24504;1342;3027089;-72
2022/11/08 22:22:38;;;;;;;76.30;30.30;;;;;;;3.69;74.74;100190.31;24532;1342;3027698;-71
2022/11/08 22:25:07;;;;;;;82.00;34.00;;;;;;;4.36;72.41;100186.44;24504;1324;3026552;-70
2022/11/08 22:27:41;;;;;;;91.30;37.90;;;;;;;4.53;71.29;100184.99;24465;1336;3054441;-74
2022/11/08 22:30:10;;;;;;;97.30;40.10;;;;;;;4.48;71.41;100186.31;24452;1326;3027051;-67
2022/11/08 22:32:39;;;;;;;87.60;37.00;;;;;;;4.37;71.52;100185.55;24471;1336;3028834;-70
2022/11/08 22:35:08;;;;;;;90.30;37.60;;;;;;;4.19;72.08;100187.87;24492;1342;3025672;-70
2022/11/08 22:37:41;;;;;;;99.50;37.60;;;;;;;3.95;72.73;100200.36;24557;1334;3050496;-70
2022/11/08 22:40:11;;;;;;;87.20;38.50;;;;;;;3.75;73.28;100195.59;24495;1336;3026920;-70
2022/11/08 22:42:40;;;;;;;87.20;37.50;;;;;;;3.61;73.79;100192.41;24525;1336;3052420;-70
2022/11/08 22:45:09;;;;;;;93.40;37.10;;;;;;;3.52;74.41;100193.79;24451;1336;3025885;-68
2022/11/08 22:47:39;;;;;;;81.50;35.10;;;;;;;3.35;75.12;100189.45;24450;1338;3054187;-72
2022/11/08 22:50:08;;;;;;;87.60;34.80;;;;;;;3.30;75.68;100189.90;24542;1319;3027670;-69
2022/11/08 22:52:38;;;;;;;84.10;35.40;;;;;;;3.26;76.01;100188.94;24477;1335;3055707;-68
2022/11/08 22:55:07;;;;;;;73.30;33.20;;;;;;;3.26;76.11;100186.52;24503;1336;3025866;-73
2022/11/08 22:57:36;;;;;;;79.60;32.40;;;;;;;3.17;76.04;100181.98;24497;1336;3049514;-70
2022/11/08 23:00:08;;;;;;;71.50;32.70;;;;;;;3.13;76.27;100183.98;24533;1335;3026797;-73
2022/11/08 23:02:40;;;;;;;69.10;31.00;;;;;;;3.17;76.67;100179.92;24470;1335;3027140;-71
2022/11/08 23:05:11;;;;;;;71.60;31.60;;;;;;;3.11;76.35;100178.13;24502;1336;3029507;-66
2022/11/08 23:07:40;;;;;;;68.40;24.80;;;;;;;3.08;76.69;100183.90;24503;1335;3028505;-70
2022/11/08 23:10:13;;;;;;;54.80;23.40;;;;;;;3.54;75.46;100179.53;24508;1331;3027213;-72
2022/11/08 23:24:18;;;;;;;77.00;30.20;;;;;;;4.08;72.39;100185.69;24522;1330;3051499;-71
2022/11/08 23:24:19;;;;;;;64.80;28.70;;;;;;;3.68;73.70;100190.70;24476;1336;3070754;-71
2022/11/08 23:32:23;;;;;;;68.90;31.00;;;;;;;3.23;75.52;100191.94;24492;1325;3069740;-70
2022/11/08 23:34:52;;;;;;;73.40;31.50;;;;;;;3.14;76.03;100191.23;24541;1329;3026533;-71
2022/11/08 23:37:21;;;;;;;77.00;32.70;;;;;;;3.05;76.36;100191.92;24497;1332;3048894;-72
2022/11/08 23:45:25;;;;;;;69.30;30.00;;;;;;;2.76;77.10;100183.41;24479;1335;3050736;-69
2022/11/08 23:47:54;;;;;;;65.40;29.90;;;;;;;2.66;77.48;100183.94;24555;1341;3028714;-72
2022/11/08 23:50:23;;;;;;;67.90;29.20;;;;;;;2.63;77.84;100182.94;24554;1333;3052700;-67
2022/11/08 23:52:52;;;;;;;55.50;22.70;;;;;;;2.63;78.19;100182.77;24562;1339;3029185;-71
2022/11/08 23:55:21;;;;;;;47.00;21.00;;;;;;;3.02;77.20;100183.30;24497;1325;3026672;-72
2022/11/08 23:57:50;;;;;;;56.70;23.40;;;;;;;3.72;74.80;100181.96;24577;1332;3051540;-71
